PWSweather.com
Personal Weather Stations
Station Observations
NYERIN
South Erin, Erin, NY 14838-9545

South ErinErin, NY 14838-9545

Lat: 42.150605, Lon: -76.654038

Elevation: 1663

Station Type: Davis VP Pro II

http://southerin-ny.org/wx.php

Latest ConditionsUpdated 7:52:01 PM EDT Wednesday, Apr 1, 2015
Currently Today's Max Today's Min Today's Average
Temperature 37.0°F2.8°C 41.3°F5.2°C 21.9°F-5.6°C 30.4°F-0.9°C
Dew Point 20.1°F-6.6°C 25.9°F-3.4°C 13.9°F-10.1°C 21.1°F-6.1°C
Winds Calm Calm 7.7 mph N12.4 kmh N - 2.3 mph 3.7 kmh
Wind Gusts -- 11.0 mph17.7 kmh - -
Humidity 50% 99% 39% 73%
Pressure 30.18 in1022.0 mb 30.19 in1022.4 mb 29.94 in1013.9 mb -
Hour Temp Dew Point Humidity Winds Wind Gusts Pressure Precip Precip Rate Daily Precip Total
07:52 PM 37.0°F2.8°C 20.1°F-6.6°C 50% Calm Calm -- 30.18 in1022.0 mb - 0.00 in0.0 mm 0.00 in0.0 mm
07:42 PM 37.6°F3.1°C 20.1°F-6.6°C 49% Calm Calm -- 30.18 in1022.0 mb - 0.00 in0.0 mm 0.00 in0.0 mm
07:32 PM 38.2°F3.4°C 19.7°F-6.8°C 47% 1.6 mph N2.6 kmh N 3.0 mph4.8 kmh 30.18 in1022.0 mb - 0.00 in0.0 mm 0.00 in0.0 mm
07:22 PM 38.9°F3.8°C 19.9°F-6.7°C 46% 3.3 mph NNW5.3 kmh NNW 6.0 mph9.7 kmh 30.19 in1022.4 mb - 0.00 in0.0 mm 0.00 in0.0 mm
07:12 PM 39.5°F4.2°C 19.4°F-7.0°C 44% 2.1 mph NNW3.4 kmh NNW 4.0 mph6.4 kmh 30.19 in1022.4 mb - 0.00 in0.0 mm 0.00 in0.0 mm
07:02 PM 40.1°F4.5°C 19.4°F-7.0°C 43% 2.0 mph NNW3.2 kmh NNW 5.0 mph8.0 kmh 30.19 in1022.4 mb - 0.00 in0.0 mm 0.00 in0.0 mm
06:52 PM 40.5°F4.7°C 19.7°F-6.8°C 43% 1.8 mph N2.9 kmh N 4.0 mph6.4 kmh 30.19 in1022.4 mb - 0.00 in0.0 mm 0.00 in0.0 mm
06:42 PM 40.8°F4.9°C 19.4°F-7.0°C 42% 2.7 mph NNW4.3 kmh NNW 3.0 mph4.8 kmh 30.19 in1022.4 mb - 0.00 in0.0 mm 0.00 in0.0 mm
06:32 PM 40.9°F4.9°C 19.5°F-6.9°C 42% 3.3 mph NNW5.3 kmh NNW 5.0 mph8.0 kmh 30.19 in1022.4 mb - 0.00 in0.0 mm 0.00 in0.0 mm
06:22 PM 40.8°F4.9°C 19.5°F-6.9°C 42% 4.6 mph NNW7.4 kmh NNW 9.0 mph14.5 kmh 30.19 in1022.4 mb - 0.00 in0.0 mm 0.00 in0.0 mm
06:12 PM 40.9°F4.9°C 18.4°F-7.6°C 40% 2.8 mph NNW4.5 kmh NNW 7.0 mph11.3 kmh 30.18 in1022.0 mb - 0.00 in0.0 mm 0.00 in0.0 mm
06:02 PM 40.5°F4.7°C 19.2°F-7.1°C 42% 3.6 mph N5.8 kmh N 6.0 mph9.7 kmh 30.18 in1022.0 mb - 0.00 in0.0 mm 0.00 in0.0 mm
05:52 PM 40.9°F4.9°C 19.5°F-6.9°C 42% 4.5 mph N7.2 kmh N 6.0 mph9.7 kmh 30.18 in1022.0 mb - 0.00 in0.0 mm 0.00 in0.0 mm
05:42 PM 41.0°F5.0°C 19.1°F-7.2°C 41% 0.7 mph NNW1.1 kmh NNW -- 30.18 in1022.0 mb - 0.00 in0.0 mm 0.00 in0.0 mm
05:32 PM 40.8°F4.9°C 18.3°F-7.6°C 40% 3.3 mph NW5.3 kmh NW 4.0 mph6.4 kmh 30.18 in1022.0 mb - 0.00 in0.0 mm 0.00 in0.0 mm
05:22 PM 40.9°F4.9°C 19.5°F-6.9°C 42% 2.6 mph NW4.2 kmh NW 6.0 mph9.7 kmh 30.18 in1022.0 mb - 0.00 in0.0 mm 0.00 in0.0 mm
05:12 PM 41.3°F5.2°C 19.3°F-7.1°C 41% 6.3 mph NNW10.1 kmh NNW 8.0 mph12.9 kmh 30.18 in1022.0 mb - 0.00 in0.0 mm 0.00 in0.0 mm
05:02 PM 40.9°F4.9°C 19.5°F-6.9°C 42% 2.9 mph NW4.7 kmh NW 5.0 mph8.0 kmh 30.18 in1022.0 mb - 0.00 in0.0 mm 0.00 in0.0 mm
04:52 PM 40.9°F4.9°C 19.0°F-7.2°C 41% 2.2 mph N3.5 kmh N 6.0 mph9.7 kmh 30.18 in1022.0 mb - 0.00 in0.0 mm 0.00 in0.0 mm
04:42 PM 40.9°F4.9°C 20.6°F-6.3°C 44% 0.9 mph WSW1.4 kmh WSW 7.0 mph11.3 kmh 30.18 in1022.0 mb - 0.00 in0.0 mm 0.00 in0.0 mm
04:32 PM 40.3°F4.6°C 20.1°F-6.6°C 44% 2.9 mph NW4.7 kmh NW 6.0 mph9.7 kmh 30.18 in1022.0 mb - 0.00 in0.0 mm 0.00 in0.0 mm
04:22 PM 40.2°F4.6°C 17.8°F-7.9°C 40% 1.8 mph NW2.9 kmh NW 3.0 mph4.8 kmh 30.19 in1022.4 mb - 0.00 in0.0 mm 0.00 in0.0 mm
04:12 PM 40.6°F4.8°C 19.3°F-7.1°C 42% 4.3 mph NNW6.9 kmh NNW 6.0 mph9.7 kmh 30.19 in1022.4 mb - 0.00 in0.0 mm 0.00 in0.0 mm
04:02 PM 40.3°F4.6°C 19.0°F-7.2°C 42% 1.9 mph W3.1 kmh W 4.0 mph6.4 kmh 30.19 in1022.4 mb - 0.00 in0.0 mm 0.00 in0.0 mm
03:52 PM 39.9°F4.4°C 18.1°F-7.7°C 41% 1.2 mph NNW1.9 kmh NNW 8.0 mph12.9 kmh 30.19 in1022.4 mb - 0.00 in0.0 mm 0.00 in0.0 mm
03:42 PM 39.6°F4.2°C 17.2°F-8.2°C 40% 1.7 mph NNW2.7 kmh NNW 3.0 mph4.8 kmh 30.18 in1022.0 mb - 0.00 in0.0 mm 0.00 in0.0 mm
03:32 PM 39.9°F4.4°C 19.2°F-7.1°C 43% 5.9 mph NNW9.5 kmh NNW 9.0 mph14.5 kmh 30.18 in1022.0 mb - 0.00 in0.0 mm 0.00 in0.0 mm
03:22 PM 39.2°F4.0°C 18.6°F-7.4°C 43% 1.5 mph NW2.4 kmh NW 3.0 mph4.8 kmh 30.18 in1022.0 mb - 0.00 in0.0 mm 0.00 in0.0 mm
03:12 PM 38.9°F3.8°C 17.2°F-8.2°C 41% 4.3 mph NW6.9 kmh NW 7.0 mph11.3 kmh 30.18 in1022.0 mb - 0.00 in0.0 mm 0.00 in0.0 mm
03:02 PM 37.9°F3.3°C 15.7°F-9.1°C 40% 0.1 mph N0.2 kmh N -- 30.18 in1022.0 mb - 0.00 in0.0 mm 0.00 in0.0 mm
02:52 PM 38.3°F3.5°C 17.8°F-7.9°C 43% 2.8 mph 4.5 kmh 7.0 mph11.3 kmh 30.18 in1022.0 mb - 0.00 in0.0 mm 0.00 in0.0 mm
02:42 PM 38.0°F3.3°C 17.5°F-8.1°C 43% 3.9 mph W6.3 kmh W 5.0 mph8.0 kmh 30.18 in1022.0 mb - 0.00 in0.0 mm 0.00 in0.0 mm
02:32 PM 37.5°F3.1°C 16.5°F-8.6°C 42% 4.8 mph N7.7 kmh N 8.0 mph12.9 kmh 30.18 in1022.0 mb - 0.00 in0.0 mm 0.00 in0.0 mm
02:22 PM 37.5°F3.1°C 15.9°F-8.9°C 41% 3.6 mph NNW5.8 kmh NNW 8.0 mph12.9 kmh 30.18 in1022.0 mb - 0.00 in0.0 mm 0.00 in0.0 mm
02:12 PM 37.4°F3.0°C 15.2°F-9.3°C 40% 2.3 mph N3.7 kmh N 3.0 mph4.8 kmh 30.18 in1022.0 mb - 0.00 in0.0 mm 0.00 in0.0 mm
02:02 PM 37.0°F2.8°C 15.5°F-9.2°C 41% 5.1 mph N8.2 kmh N 8.0 mph12.9 kmh 30.18 in1022.0 mb - 0.00 in0.0 mm 0.00 in0.0 mm
01:52 PM 36.9°F2.7°C 15.9°F-8.9°C 42% 5.6 mph NW9.0 kmh NW 10.0 mph16.1 kmh 30.18 in1022.0 mb - 0.00 in0.0 mm 0.00 in0.0 mm
01:42 PM 36.5°F2.5°C 13.9°F-10.1°C 39% 4.3 mph N6.9 kmh N 7.0 mph11.3 kmh 30.18 in1022.0 mb - 0.00 in0.0 mm 0.00 in0.0 mm
01:32 PM 36.5°F2.5°C 14.4°F-9.8°C 40% 5.5 mph N8.9 kmh N 7.0 mph11.3 kmh 30.18 in1022.0 mb - 0.00 in0.0 mm 0.00 in0.0 mm
01:22 PM 36.5°F2.5°C 17.1°F-8.3°C 45% 3.8 mph N6.1 kmh N 8.0 mph12.9 kmh 30.18 in1022.0 mb - 0.00 in0.0 mm 0.00 in0.0 mm
01:12 PM 35.6°F2.0°C 15.8°F-9.0°C 44% 2.5 mph NW4.0 kmh NW 6.0 mph9.7 kmh 30.18 in1022.0 mb - 0.00 in0.0 mm 0.00 in0.0 mm
01:02 PM 35.5°F1.9°C 16.2°F-8.8°C 45% 6.5 mph NNW10.5 kmh NNW 11.0 mph17.7 kmh 30.18 in1022.0 mb - 0.00 in0.0 mm 0.00 in0.0 mm
12:52 PM 35.0°F1.7°C 16.8°F-8.4°C 47% 7.7 mph N12.4 kmh N 10.0 mph16.1 kmh 30.18 in1022.0 mb - 0.00 in0.0 mm 0.00 in0.0 mm
12:42 PM 35.2°F1.8°C 17.0°F-8.3°C 47% 6.9 mph NNE11.1 kmh NNE 11.0 mph17.7 kmh 30.17 in1021.7 mb - 0.00 in0.0 mm 0.00 in0.0 mm
12:32 PM 34.8°F1.6°C 19.4°F-7.0°C 53% 2.5 mph WNW4.0 kmh WNW 4.0 mph6.4 kmh 30.18 in1022.0 mb - 0.00 in0.0 mm 0.00 in0.0 mm
12:22 PM 34.4°F1.3°C 21.5°F-5.8°C 59% 5.8 mph W9.3 kmh W 10.0 mph16.1 kmh 30.18 in1022.0 mb - 0.00 in0.0 mm 0.00 in0.0 mm
12:12 PM 33.5°F0.8°C 21.5°F-5.8°C 61% 4.8 mph NW7.7 kmh NW 9.0 mph14.5 kmh 30.18 in1022.0 mb - 0.00 in0.0 mm 0.00 in0.0 mm
12:02 PM 33.0°F0.6°C 23.9°F-4.5°C 69% 3.7 mph W6.0 kmh W 5.0 mph8.0 kmh 30.17 in1021.7 mb - 0.00 in0.0 mm 0.00 in0.0 mm
11:52 AM 33.2°F0.7°C 22.7°F-5.2°C 65% 5.0 mph NNW8.0 kmh NNW 7.0 mph11.3 kmh 30.18 in1022.0 mb - 0.00 in0.0 mm 0.00 in0.0 mm
11:42 AM 32.4°F0.2°C 24.4°F-4.2°C 72% 3.4 mph NNW5.5 kmh NNW 7.0 mph11.3 kmh 30.17 in1021.7 mb - 0.00 in0.0 mm 0.00 in0.0 mm
11:32 AM 31.8°F-0.1°C 23.8°F-4.6°C 72% 2.7 mph NW4.3 kmh NW 4.0 mph6.4 kmh 30.17 in1021.7 mb - 0.00 in0.0 mm 0.00 in0.0 mm
11:22 AM 31.8°F-0.1°C 25.4°F-3.7°C 77% 1.0 mph NW1.6 kmh NW 4.0 mph6.4 kmh 30.17 in1021.7 mb - 0.00 in0.0 mm 0.00 in0.0 mm
11:12 AM 31.0°F-0.6°C 24.6°F-4.1°C 77% 1.3 mph N2.1 kmh N 1.0 mph1.6 kmh 30.17 in1021.7 mb - 0.00 in0.0 mm 0.00 in0.0 mm
11:02 AM 30.2°F-1.0°C 24.8°F-4.0°C 80% 5.8 mph N9.3 kmh N 9.0 mph14.5 kmh 30.16 in1021.3 mb - 0.00 in0.0 mm 0.00 in0.0 mm
10:52 AM 30.7°F-0.7°C 25.9°F-3.4°C 82% 6.3 mph N10.1 kmh N 8.0 mph12.9 kmh 30.16 in1021.3 mb - 0.00 in0.0 mm 0.00 in0.0 mm
10:42 AM 29.9°F-1.2°C 25.3°F-3.7°C 83% 4.2 mph N6.8 kmh N 6.0 mph9.7 kmh 30.15 in1021.0 mb - 0.00 in0.0 mm 0.00 in0.0 mm
10:32 AM 30.5°F-0.8°C 25.6°F-3.6°C 82% 5.1 mph N8.2 kmh N 4.0 mph6.4 kmh 30.15 in1021.0 mb - 0.00 in0.0 mm 0.00 in0.0 mm
10:22 AM 29.4°F-1.4°C 24.9°F-3.9°C 83% 5.8 mph N9.3 kmh N 11.0 mph17.7 kmh 30.14 in1020.7 mb - 0.00 in0.0 mm 0.00 in0.0 mm
10:12 AM 29.1°F-1.6°C 24.6°F-4.1°C 83% 6.8 mph NW10.9 kmh NW 10.0 mph16.1 kmh 30.14 in1020.7 mb - 0.00 in0.0 mm 0.00 in0.0 mm
10:02 AM 28.8°F-1.8°C 24.3°F-4.3°C 83% 2.8 mph N4.5 kmh N 8.0 mph12.9 kmh 30.13 in1020.3 mb - 0.00 in0.0 mm 0.00 in0.0 mm
09:52 AM 29.1°F-1.6°C 24.0°F-4.4°C 81% 4.9 mph NW7.9 kmh NW 7.0 mph11.3 kmh 30.12 in1020.0 mb - 0.00 in0.0 mm 0.00 in0.0 mm
09:42 AM 29.1°F-1.6°C 23.7°F-4.6°C 80% 3.1 mph NW5.0 kmh NW 7.0 mph11.3 kmh 30.11 in1019.6 mb - 0.00 in0.0 mm 0.00 in0.0 mm
09:32 AM 29.0°F-1.7°C 23.6°F-4.7°C 80% 6.3 mph NW10.1 kmh NW 9.0 mph14.5 kmh 30.10 in1019.3 mb - 0.00 in0.0 mm 0.00 in0.0 mm
09:22 AM 28.7°F-1.8°C 23.9°F-4.5°C 82% 5.4 mph NNW8.7 kmh NNW 9.0 mph14.5 kmh 30.10 in1019.3 mb - 0.00 in0.0 mm 0.00 in0.0 mm
09:12 AM 27.6°F-2.4°C 24.2°F-4.3°C 87% 6.1 mph NW9.8 kmh NW 8.0 mph12.9 kmh 30.09 in1019.0 mb - 0.00 in0.0 mm 0.00 in0.0 mm
09:02 AM 27.0°F-2.8°C 24.2°F-4.3°C 89% 5.4 mph NNW8.7 kmh NNW 8.0 mph12.9 kmh 30.09 in1019.0 mb - 0.00 in0.0 mm 0.00 in0.0 mm
08:52 AM 26.5°F-3.1°C 24.2°F-4.3°C 91% 3.5 mph NNW5.6 kmh NNW 9.0 mph14.5 kmh 30.09 in1019.0 mb - 0.00 in0.0 mm 0.00 in0.0 mm
08:42 AM 25.7°F-3.5°C 24.7°F-4.1°C 96% 4.4 mph N7.1 kmh N 9.0 mph14.5 kmh 30.09 in1019.0 mb - 0.00 in0.0 mm 0.00 in0.0 mm
08:32 AM 25.0°F-3.9°C 24.5°F-4.2°C 98% 1.1 mph N1.8 kmh N 3.0 mph4.8 kmh 30.09 in1019.0 mb - 0.00 in0.0 mm 0.00 in0.0 mm
08:22 AM 24.4°F-4.2°C 24.2°F-4.3°C 99% 2.4 mph NNW3.9 kmh NNW 4.0 mph6.4 kmh 30.09 in1019.0 mb - 0.00 in0.0 mm 0.00 in0.0 mm
08:12 AM 23.1°F-4.9°C 22.8°F-5.1°C 99% 0.5 mph NNW0.8 kmh NNW 1.0 mph1.6 kmh 30.08 in1018.6 mb - 0.00 in0.0 mm 0.00 in0.0 mm
08:02 AM 22.5°F-5.3°C 22.0°F-5.6°C 98% 1.6 mph NW2.6 kmh NW 4.0 mph6.4 kmh 30.07 in1018.3 mb - 0.00 in0.0 mm 0.00 in0.0 mm
07:52 AM 22.4°F-5.3°C 21.9°F-5.6°C 98% 1.2 mph NW1.9 kmh NW 4.0 mph6.4 kmh 30.07 in1018.3 mb - 0.00 in0.0 mm 0.00 in0.0 mm
07:42 AM 22.4°F-5.3°C 21.9°F-5.6°C 98% 1.5 mph NW2.4 kmh NW 3.0 mph4.8 kmh 30.07 in1018.3 mb - 0.00 in0.0 mm 0.00 in0.0 mm
07:32 AM 22.5°F-5.3°C 22.0°F-5.6°C 98% 0.5 mph NW0.8 kmh NW 2.0 mph3.2 kmh 30.06 in1017.9 mb - 0.00 in0.0 mm 0.00 in0.0 mm
07:22 AM 22.9°F-5.1°C 22.4°F-5.3°C 98% 0.3 mph NW0.5 kmh NW 1.0 mph1.6 kmh 30.06 in1017.9 mb - 0.00 in0.0 mm 0.00 in0.0 mm
07:12 AM 23.0°F-5.0°C 22.5°F-5.3°C 98% Calm Calm -- 30.05 in1017.6 mb - 0.00 in0.0 mm 0.00 in0.0 mm
07:02 AM 23.2°F-4.9°C 22.7°F-5.2°C 98% Calm Calm 1.0 mph1.6 kmh 30.04 in1017.3 mb - 0.00 in0.0 mm 0.00 in0.0 mm
06:52 AM 23.2°F-4.9°C 22.7°F-5.2°C 98% Calm Calm -- 30.03 in1016.9 mb - 0.00 in0.0 mm 0.00 in0.0 mm
06:42 AM 23.3°F-4.8°C 22.8°F-5.1°C 98% 0.5 mph NW0.8 kmh NW 2.0 mph3.2 kmh 30.02 in1016.6 mb - 0.00 in0.0 mm 0.00 in0.0 mm
06:32 AM 23.5°F-4.7°C 23.0°F-5.0°C 98% 0.1 mph NW0.2 kmh NW -- 30.02 in1016.6 mb - 0.00 in0.0 mm 0.00 in0.0 mm
06:22 AM 23.5°F-4.7°C 23.0°F-5.0°C 98% Calm Calm -- 30.02 in1016.6 mb - 0.00 in0.0 mm 0.00 in0.0 mm
06:12 AM 23.5°F-4.7°C 23.0°F-5.0°C 98% 0.2 mph NW0.3 kmh NW -- 30.01 in1016.3 mb - 0.00 in0.0 mm 0.00 in0.0 mm
06:02 AM 23.6°F-4.7°C 23.1°F-4.9°C 98% 0.1 mph NW0.2 kmh NW -- 30.00 in1015.9 mb - 0.00 in0.0 mm 0.00 in0.0 mm
05:52 AM 23.8°F-4.6°C 23.3°F-4.8°C 98% Calm Calm -- 30.00 in1015.9 mb - 0.00 in0.0 mm 0.00 in0.0 mm
05:42 AM 23.9°F-4.5°C 23.4°F-4.8°C 98% Calm Calm -- 30.00 in1015.9 mb - 0.00 in0.0 mm 0.00 in0.0 mm
05:32 AM 23.8°F-4.6°C 23.3°F-4.8°C 98% Calm Calm -- 30.00 in1015.9 mb - 0.00 in0.0 mm 0.00 in0.0 mm
05:22 AM 23.6°F-4.7°C 23.1°F-4.9°C 98% 0.5 mph NW0.8 kmh NW 1.0 mph1.6 kmh 30.00 in1015.9 mb - 0.00 in0.0 mm 0.00 in0.0 mm
05:12 AM 23.3°F-4.8°C 22.8°F-5.1°C 98% 1.1 mph NW1.8 kmh NW 4.0 mph6.4 kmh 29.99 in1015.6 mb - 0.00 in0.0 mm 0.00 in0.0 mm
05:02 AM 23.3°F-4.8°C 22.8°F-5.1°C 98% Calm Calm 1.0 mph1.6 kmh 29.99 in1015.6 mb - 0.00 in0.0 mm 0.00 in0.0 mm
04:52 AM 23.0°F-5.0°C 22.5°F-5.3°C 98% 0.2 mph NW0.3 kmh NW -- 29.98 in1015.2 mb - 0.00 in0.0 mm 0.00 in0.0 mm
04:42 AM 22.7°F-5.2°C 22.2°F-5.4°C 98% 0.5 mph NW0.8 kmh NW 1.0 mph1.6 kmh 29.98 in1015.2 mb - 0.00 in0.0 mm 0.00 in0.0 mm
04:32 AM 21.9°F-5.6°C 21.2°F-6.0°C 97% 0.2 mph NW0.3 kmh NW 1.0 mph1.6 kmh 29.98 in1015.2 mb - 0.00 in0.0 mm 0.00 in0.0 mm
04:22 AM 21.9°F-5.6°C 21.2°F-6.0°C 97% Calm Calm -- 29.98 in1015.2 mb - 0.00 in0.0 mm 0.00 in0.0 mm
04:12 AM 21.9°F-5.6°C 21.2°F-6.0°C 97% Calm Calm -- 29.98 in1015.2 mb - 0.00 in0.0 mm 0.00 in0.0 mm
04:02 AM 21.9°F-5.6°C 20.9°F-6.2°C 96% Calm Calm -- 29.97 in1014.9 mb - 0.00 in0.0 mm 0.00 in0.0 mm
03:52 AM 22.1°F-5.5°C 21.1°F-6.1°C 96% Calm Calm -- 29.98 in1015.2 mb - 0.00 in0.0 mm 0.00 in0.0 mm
03:42 AM 22.1°F-5.5°C 21.1°F-6.1°C 96% Calm Calm -- 29.98 in1015.2 mb - 0.00 in0.0 mm 0.00 in0.0 mm
03:32 AM 22.2°F-5.4°C 21.2°F-6.0°C 96% Calm Calm -- 29.98 in1015.2 mb - 0.00 in0.0 mm 0.00 in0.0 mm
03:22 AM 22.2°F-5.4°C 21.2°F-6.0°C 96% Calm Calm -- 29.97 in1014.9 mb - 0.00 in0.0 mm 0.00 in0.0 mm
03:12 AM 22.4°F-5.3°C 21.4°F-5.9°C 96% Calm Calm -- 29.97 in1014.9 mb - 0.00 in0.0 mm 0.00 in0.0 mm
03:02 AM 22.7°F-5.2°C 21.7°F-5.7°C 96% 0.1 mph NNW0.2 kmh NNW 1.0 mph1.6 kmh 29.97 in1014.9 mb - 0.00 in0.0 mm 0.00 in0.0 mm
02:52 AM 22.9°F-5.1°C 21.9°F-5.6°C 96% Calm Calm -- 29.97 in1014.9 mb - 0.00 in0.0 mm 0.00 in0.0 mm
02:42 AM 23.0°F-5.0°C 22.0°F-5.6°C 96% Calm Calm -- 29.97 in1014.9 mb - 0.00 in0.0 mm 0.00 in0.0 mm
02:32 AM 23.0°F-5.0°C 22.0°F-5.6°C 96% 0.2 mph NNW0.3 kmh NNW 1.0 mph1.6 kmh 29.96 in1014.6 mb - 0.00 in0.0 mm 0.00 in0.0 mm
02:22 AM 23.0°F-5.0°C 22.0°F-5.6°C 96% 1.1 mph NNW1.8 kmh NNW 2.0 mph3.2 kmh 29.96 in1014.6 mb - 0.00 in0.0 mm 0.00 in0.0 mm
02:12 AM 23.2°F-4.9°C 22.0°F-5.6°C 95% 0.2 mph NNW0.3 kmh NNW -- 29.96 in1014.6 mb - 0.00 in0.0 mm 0.00 in0.0 mm
02:02 AM 23.5°F-4.7°C 22.3°F-5.4°C 95% Calm Calm 1.0 mph1.6 kmh 29.96 in1014.6 mb - 0.00 in0.0 mm 0.00 in0.0 mm
01:52 AM 23.6°F-4.7°C 22.4°F-5.3°C 95% 0.2 mph NNW0.3 kmh NNW 1.0 mph1.6 kmh 29.96 in1014.6 mb - 0.00 in0.0 mm 0.00 in0.0 mm
01:42 AM 23.6°F-4.7°C 22.4°F-5.3°C 95% 0.5 mph NNW0.8 kmh NNW 2.0 mph3.2 kmh 29.95 in1014.2 mb - 0.00 in0.0 mm 0.00 in0.0 mm
01:32 AM 23.8°F-4.6°C 22.6°F-5.2°C 95% 0.3 mph NNW0.5 kmh NNW 2.0 mph3.2 kmh 29.95 in1014.2 mb - 0.00 in0.0 mm 0.00 in0.0 mm
01:22 AM 23.6°F-4.7°C 22.4°F-5.3°C 95% 2.3 mph N3.7 kmh N 4.0 mph6.4 kmh 29.95 in1014.2 mb - 0.00 in0.0 mm 0.00 in0.0 mm
01:12 AM 23.8°F-4.6°C 22.3°F-5.4°C 94% 0.5 mph NNW0.8 kmh NNW 1.0 mph1.6 kmh 29.95 in1014.2 mb - 0.00 in0.0 mm 0.00 in0.0 mm
01:02 AM 23.9°F-4.5°C 22.4°F-5.3°C 94% 0.9 mph NNW1.4 kmh NNW -- 29.95 in1014.2 mb - 0.00 in0.0 mm 0.00 in0.0 mm
12:52 AM 24.1°F-4.4°C 22.6°F-5.2°C 94% 1.1 mph NNW1.8 kmh NNW 3.0 mph4.8 kmh 29.95 in1014.2 mb - 0.00 in0.0 mm 0.00 in0.0 mm
12:42 AM 24.1°F-4.4°C 22.6°F-5.2°C 94% 1.3 mph N2.1 kmh N 4.0 mph6.4 kmh 29.95 in1014.2 mb - 0.00 in0.0 mm 0.00 in0.0 mm
12:32 AM 24.2°F-4.3°C 22.5°F-5.3°C 93% 1.3 mph NNW2.1 kmh NNW 4.0 mph6.4 kmh 29.95 in1014.2 mb - 0.00 in0.0 mm 0.00 in0.0 mm
12:22 AM 24.4°F-4.2°C 22.7°F-5.2°C 93% 0.7 mph NNW1.1 kmh NNW 2.0 mph3.2 kmh 29.94 in1013.9 mb - 0.00 in0.0 mm 0.00 in0.0 mm
12:12 AM 24.7°F-4.1°C 23.0°F-5.0°C 93% 0.3 mph NNW0.5 kmh NNW 2.0 mph3.2 kmh 29.94 in1013.9 mb - 0.00 in0.0 mm 0.00 in0.0 mm
12:02 AM 25.0°F-3.9°C 23.3°F-4.8°C 93% 0.1 mph NW0.2 kmh NW -- 29.94 in1013.9 mb - 0.00 in0.0 mm 0.00 in0.0 mm